sensor_id;sensor_type;location;lat;lon;timestamp;temperature;humidity
48019;DHT22;33786;48.690;9.562;2023-09-12T00:00:38;15.80;99.90
48019;DHT22;33786;48.690;9.562;2023-09-12T00:03:04;15.80;99.90
48019;DHT22;33786;48.690;9.562;2023-09-12T00:05:31;15.80;99.90
48019;DHT22;33786;48.690;9.562;2023-09-12T00:07:58;15.80;99.90
48019;DHT22;33786;48.690;9.562;2023-09-12T00:10:25;15.70;99.90
48019;DHT22;33786;48.690;9.562;2023-09-12T00:12:53;15.70;99.90
48019;DHT22;33786;48.690;9.562;2023-09-12T00:15:20;15.60;99.90
48019;DHT22;33786;48.690;9.562;2023-09-12T00:17:46;15.60;99.90
48019;DHT22;33786;48.690;9.562;2023-09-12T00:20:15;15.60;99.90
48019;DHT22;33786;48.690;9.562;2023-09-12T00:22:42;15.60;99.90
48019;DHT22;33786;48.690;9.562;2023-09-12T00:25:08;15.60;99.90
48019;DHT22;33786;48.690;9.562;2023-09-12T00:27:35;15.60;99.90
48019;DHT22;33786;48.690;9.562;2023-09-12T00:30:02;15.60;99.90
48019;DHT22;33786;48.690;9.562;2023-09-12T00:32:29;15.60;99.90
48019;DHT22;33786;48.690;9.562;2023-09-12T00:34:56;15.60;99.90
48019;DHT22;33786;48.690;9.562;2023-09-12T00:37:22;15.60;99.90
48019;DHT22;33786;48.690;9.562;2023-09-12T00:39:49;15.50;99.90
48019;DHT22;33786;48.690;9.562;2023-09-12T00:42:17;15.50;99.90
48019;DHT22;33786;48.690;9.562;2023-09-12T00:44:44;15.50;99.90
48019;DHT22;33786;48.690;9.562;2023-09-12T00:47:10;15.50;99.90
48019;DHT22;33786;48.690;9.562;2023-09-12T00:49:38;15.40;99.90
48019;DHT22;33786;48.690;9.562;2023-09-12T00:52:06;15.50;99.90
48019;DHT22;33786;48.690;9.562;2023-09-12T00:54:32;15.40;99.90
48019;DHT22;33786;48.690;9.562;2023-09-12T00:56:59;15.40;99.90
48019;DHT22;33786;48.690;9.562;2023-09-12T00:59:26;15.40;99.90
48019;DHT22;33786;48.690;9.562;2023-09-12T01:01:53;15.30;99.90
48019;DHT22;33786;48.690;9.562;2023-09-12T01:04:20;15.30;99.90
48019;DHT22;33786;48.690;9.562;2023-09-12T01:07:00;15.30;99.90
48019;DHT22;33786;48.690;9.562;2023-09-12T01:09:27;15.30;99.90
48019;DHT22;33786;48.690;9.562;2023-09-12T01:11:54;15.20;99.90
48019;DHT22;33786;48.690;9.562;2023-09-12T01:14:20;15.30;99.90
48019;DHT22;33786;48.690;9.562;2023-09-12T01:16:47;15.20;99.90
48019;DHT22;33786;48.690;9.562;2023-09-12T01:19:14;15.30;99.90
48019;DHT22;33786;48.690;9.562;2023-09-12T01:29:34;15.20;99.90
48019;DHT22;33786;48.690;9.562;2023-09-12T01:32:01;15.10;99.90
48019;DHT22;33786;48.690;9.562;2023-09-12T01:34:29;15.10;99.90
48019;DHT22;33786;48.690;9.562;2023-09-12T01:36:56;15.10;99.90
48019;DHT22;33786;48.690;9.562;2023-09-12T01:39:23;15.10;99.90
48019;DHT22;33786;48.690;9.562;2023-09-12T01:41:49;15.10;99.90
48019;DHT22;33786;48.690;9.562;2023-09-12T01:44:19;15.10;99.90
48019;DHT22;33786;48.690;9.562;2023-09-12T01:46:48;15.00;99.90
48019;DHT22;33786;48.690;9.562;2023-09-12T01:49:16;15.00;99.90
48019;DHT22;33786;48.690;9.562;2023-09-12T01:51:44;15.00;99.90
48019;DHT22;33786;48.690;9.562;2023-09-12T01:54:11;15.00;99.90
48019;DHT22;33786;48.690;9.562;2023-09-12T01:56:38;15.00;99.90
48019;DHT22;33786;48.690;9.562;2023-09-12T01:59:05;15.00;99.90
48019;DHT22;33786;48.690;9.562;2023-09-12T02:01:32;15.00;99.90
48019;DHT22;33786;48.690;9.562;2023-09-12T02:03:59;14.90;99.90
48019;DHT22;33786;48.690;9.562;2023-09-12T02:06:26;14.90;99.90
48019;DHT22;33786;48.690;9.562;2023-09-12T02:08:52;14.90;99.90
48019;DHT22;33786;48.690;9.562;2023-09-12T02:11:19;14.90;99.90
48019;DHT22;33786;48.690;9.562;2023-09-12T02:13:46;14.90;99.90
48019;DHT22;33786;48.690;9.562;2023-09-12T02:16:12;14.90;99.90
48019;DHT22;33786;48.690;9.562;2023-09-12T02:18:39;14.90;99.90
48019;DHT22;33786;48.690;9.562;2023-09-12T02:21:06;14.90;99.90
48019;DHT22;33786;48.690;9.562;2023-09-12T02:23:33;14.90;99.90
48019;DHT22;33786;48.690;9.562;2023-09-12T02:26:00;14.80;99.90
48019;DHT22;33786;48.690;9.562;2023-09-12T02:28:27;14.80;99.90
48019;DHT22;33786;48.690;9.562;2023-09-12T02:30:53;14.90;99.90
48019;DHT22;33786;48.690;9.562;2023-09-12T02:33:22;14.90;99.90
48019;DHT22;33786;48.690;9.562;2023-09-12T02:35:49;14.80;99.90
48019;DHT22;33786;48.690;9.562;2023-09-12T02:38:17;14.80;99.90
48019;DHT22;33786;48.690;9.562;2023-09-12T02:40:44;14.70;99.90
48019;DHT22;33786;48.690;9.562;2023-09-12T02:43:11;14.70;99.90
48019;DHT22;33786;48.690;9.562;2023-09-12T02:45:38;14.70;99.90
48019;DHT22;33786;48.690;9.562;2023-09-12T02:48:04;14.80;99.90
48019;DHT22;33786;48.690;9.562;2023-09-12T02:50:31;14.70;99.90
48019;DHT22;33786;48.690;9.562;2023-09-12T02:52:58;14.70;99.90
48019;DHT22;33786;48.690;9.562;2023-09-12T02:55:24;14.70;99.90
48019;DHT22;33786;48.690;9.562;2023-09-12T02:57:51;14.60;99.90
48019;DHT22;33786;48.690;9.562;2023-09-12T03:00:18;14.60;99.90
48019;DHT22;33786;48.690;9.562;2023-09-12T03:02:46;14.50;99.90
48019;DHT22;33786;48.690;9.562;2023-09-12T03:05:13;14.50;99.90
48019;DHT22;33786;48.690;9.562;2023-09-12T03:07:40;14.50;99.90
48019;DHT22;33786;48.690;9.562;2023-09-12T03:10:06;14.50;99.90
48019;DHT22;33786;48.690;9.562;2023-09-12T03:12:35;14.50;99.90
48019;DHT22;33786;48.690;9.562;2023-09-12T03:15:02;14.50;99.90
48019;DHT22;33786;48.690;9.562;2023-09-12T03:17:29;14.50;99.90
48019;DHT22;33786;48.690;9.562;2023-09-12T03:19:56;14.50;99.90
48019;DHT22;33786;48.690;9.562;2023-09-12T03:22:22;14.50;99.90
48019;DHT22;33786;48.690;9.562;2023-09-12T03:24:49;14.50;99.90
48019;DHT22;33786;48.690;9.562;2023-09-12T03:27:16;14.50;99.90
48019;DHT22;33786;48.690;9.562;2023-09-12T03:29:46;14.50;99.90
48019;DHT22;33786;48.690;9.562;2023-09-12T03:32:12;14.50;99.90
48019;DHT22;33786;48.690;9.562;2023-09-12T03:34:39;14.40;99.90
48019;DHT22;33786;48.690;9.562;2023-09-12T03:37:06;14.40;99.90
48019;DHT22;33786;48.690;9.562;2023-09-12T03:39:32;14.40;99.90
48019;DHT22;33786;48.690;9.562;2023-09-12T03:41:59;14.40;99.90
48019;DHT22;33786;48.690;9.562;2023-09-12T03:44:26;14.40;99.90
48019;DHT22;33786;48.690;9.562;2023-09-12T03:46:53;14.30;99.90
48019;DHT22;33786;48.690;9.562;2023-09-12T03:49:19;14.30;99.90
48019;DHT22;33786;48.690;9.562;2023-09-12T03:51:46;14.20;99.90
48019;DHT22;33786;48.690;9.562;2023-09-12T03:54:13;14.30;99.90
48019;DHT22;33786;48.690;9.562;2023-09-12T03:56:39;14.30;99.90
48019;DHT22;33786;48.690;9.562;2023-09-12T03:59:08;14.30;99.90
48019;DHT22;33786;48.690;9.562;2023-09-12T04:01:35;14.20;99.90
48019;DHT22;33786;48.690;9.562;2023-09-12T04:04:02;14.20;99.90
48019;DHT22;33786;48.690;9.562;2023-09-12T04:06:30;14.20;99.90
48019;DHT22;33786;48.690;9.562;2023-09-12T04:08:57;14.20;99.90
48019;DHT22;33786;48.690;9.562;2023-09-12T04:11:23;14.20;99.90
48019;DHT22;33786;48.690;9.562;2023-09-12T04:14:05;14.20;99.90
48019;DHT22;33786;48.690;9.562;2023-09-12T04:16:32;14.20;99.90
48019;DHT22;33786;48.690;9.562;2023-09-12T04:19:00;14.20;99.90
48019;DHT22;33786;48.690;9.562;2023-09-12T04:21:27;14.20;99.90
48019;DHT22;33786;48.690;9.562;2023-09-12T04:23:54;14.20;99.90
48019;DHT22;33786;48.690;9.562;2023-09-12T04:26:20;14.10;99.90
48019;DHT22;33786;48.690;9.562;2023-09-12T04:28:47;14.20;99.90
48019;DHT22;33786;48.690;9.562;2023-09-12T04:31:14;14.20;99.90
48019;DHT22;33786;48.690;9.562;2023-09-12T04:33:40;14.10;99.90
48019;DHT22;33786;48.690;9.562;2023-09-12T04:36:07;14.20;99.90
48019;DHT22;33786;48.690;9.562;2023-09-12T04:38:34;14.20;99.90
48019;DHT22;33786;48.690;9.562;2023-09-12T04:41:01;14.20;99.90
48019;DHT22;33786;48.690;9.562;2023-09-12T04:43:33;14.20;99.90
48019;DHT22;33786;48.690;9.562;2023-09-12T04:45:59;14.10;99.90
48019;DHT22;33786;48.690;9.562;2023-09-12T04:48:26;14.20;99.90
48019;DHT22;33786;48.690;9.562;2023-09-12T04:50:53;14.30;99.90
48019;DHT22;33786;48.690;9.562;2023-09-12T04:53:20;14.40;99.90
48019;DHT22;33786;48.690;9.562;2023-09-12T04:55:47;14.50;99.90
48019;DHT22;33786;48.690;9.562;2023-09-12T04:58:13;14.70;99.90
48019;DHT22;33786;48.690;9.562;2023-09-12T05:00:40;14.80;99.90
48019;DHT22;33786;48.690;9.562;2023-09-12T05:03:07;15.00;99.90
48019;DHT22;33786;48.690;9.562;2023-09-12T05:05:34;15.10;99.90
48019;DHT22;33786;48.690;9.562;2023-09-12T05:08:03;15.20;99.90
48019;DHT22;33786;48.690;9.562;2023-09-12T05:10:30;15.30;99.90
48019;DHT22;33786;48.690;9.562;2023-09-12T05:12:57;15.30;99.90
48019;DHT22;33786;48.690;9.562;2023-09-12T05:15:24;15.40;99.90
48019;DHT22;33786;48.690;9.562;2023-09-12T05:17:51;15.40;99.90
48019;DHT22;33786;48.690;9.562;2023-09-12T05:20:17;15.60;99.90
48019;DHT22;33786;48.690;9.562;2023-09-12T05:22:44;15.70;99.90
48019;DHT22;33786;48.690;9.562;2023-09-12T05:25:11;15.90;99.90
48019;DHT22;33786;48.690;9.562;2023-09-12T05:27:38;16.00;99.90
48019;DHT22;33786;48.690;9.562;2023-09-12T05:30:05;16.10;99.90
48019;DHT22;33786;48.690;9.562;2023-09-12T05:32:32;16.20;99.90
48019;DHT22;33786;48.690;9.562;2023-09-12T05:34:58;16.40;99.90
48019;DHT22;33786;48.690;9.562;2023-09-12T05:37:45;16.70;99.90
48019;DHT22;33786;48.690;9.562;2023-09-12T05:40:11;17.10;99.90
48019;DHT22;33786;48.690;9.562;2023-09-12T05:42:38;18.10;99.90
48019;DHT22;33786;48.690;9.562;2023-09-12T05:45:05;19.80;99.90
48019;DHT22;33786;48.690;9.562;2023-09-12T05:47:32;21.50;99.90
48019;DHT22;33786;48.690;9.562;2023-09-12T05:49:59;23.00;99.60
48019;DHT22;33786;48.690;9.562;2023-09-12T05:52:27;24.20;97.30
48019;DHT22;33786;48.690;9.562;2023-09-12T05:54:54;25.20;95.70
48019;DHT22;33786;48.690;9.562;2023-09-12T05:57:20;26.20;93.90
48019;DHT22;33786;48.690;9.562;2023-09-12T05:59:47;27.20;92.50
48019;DHT22;33786;48.690;9.562;2023-09-12T06:02:14;27.80;91.30
48019;DHT22;33786;48.690;9.562;2023-09-12T06:04:41;28.30;90.50
48019;DHT22;33786;48.690;9.562;2023-09-12T06:07:07;28.40;90.00
48019;DHT22;33786;48.690;9.562;2023-09-12T06:09:35;28.70;88.50
48019;DHT22;33786;48.690;9.562;2023-09-12T06:12:03;29.30;87.20
48019;DHT22;33786;48.690;9.562;2023-09-12T06:14:29;29.90;85.20
48019;DHT22;33786;48.690;9.562;2023-09-12T06:16:56;30.20;84.40
48019;DHT22;33786;48.690;9.562;2023-09-12T06:19:23;31.10;82.30
48019;DHT22;33786;48.690;9.562;2023-09-12T06:21:49;31.00;81.70
48019;DHT22;33786;48.690;9.562;2023-09-12T06:24:18;31.50;80.10
48019;DHT22;33786;48.690;9.562;2023-09-12T06:26:45;31.30;79.30
48019;DHT22;33786;48.690;9.562;2023-09-12T06:29:12;31.20;79.90
48019;DHT22;33786;48.690;9.562;2023-09-12T06:31:40;31.40;79.40
48019;DHT22;33786;48.690;9.562;2023-09-12T06:34:08;31.70;78.40
48019;DHT22;33786;48.690;9.562;2023-09-12T06:36:34;31.60;78.20
48019;DHT22;33786;48.690;9.562;2023-09-12T06:39:02;31.80;78.30
48019;DHT22;33786;48.690;9.562;2023-09-12T06:41:32;31.30;78.60
48019;DHT22;33786;48.690;9.562;2023-09-12T06:43:58;30.60;79.30
48019;DHT22;33786;48.690;9.562;2023-09-12T06:46:26;31.10;79.50
48019;DHT22;33786;48.690;9.562;2023-09-12T06:48:53;32.40;77.30
48019;DHT22;33786;48.690;9.562;2023-09-12T06:51:20;32.30;76.80
48019;DHT22;33786;48.690;9.562;2023-09-12T06:53:49;32.20;77.40
48019;DHT22;33786;48.690;9.562;2023-09-12T06:56:16;32.00;76.40
48019;DHT22;33786;48.690;9.562;2023-09-12T06:58:43;31.30;77.00
48019;DHT22;33786;48.690;9.562;2023-09-12T07:01:10;30.30;79.80
48019;DHT22;33786;48.690;9.562;2023-09-12T07:03:37;29.00;81.90
48019;DHT22;33786;48.690;9.562;2023-09-12T07:06:04;28.70;83.40
48019;DHT22;33786;48.690;9.562;2023-09-12T07:08:32;28.90;82.70
48019;DHT22;33786;48.690;9.562;2023-09-12T07:10:59;29.70;81.40
48019;DHT22;33786;48.690;9.562;2023-09-12T07:13:32;31.10;79.20
48019;DHT22;33786;48.690;9.562;2023-09-12T07:15:59;31.70;77.60
48019;DHT22;33786;48.690;9.562;2023-09-12T07:18:26;30.70;79.30
48019;DHT22;33786;48.690;9.562;2023-09-12T07:20:56;30.30;80.20
48019;DHT22;33786;48.690;9.562;2023-09-12T07:23:23;30.60;81.80
48019;DHT22;33786;48.690;9.562;2023-09-12T07:25:50;31.60;79.70
48019;DHT22;33786;48.690;9.562;2023-09-12T07:28:17;32.00;78.20
48019;DHT22;33786;48.690;9.562;2023-09-12T07:30:45;31.40;79.00
48019;DHT22;33786;48.690;9.562;2023-09-12T07:33:12;30.30;80.80
48019;DHT22;33786;48.690;9.562;2023-09-12T07:35:39;29.40;83.40
48019;DHT22;33786;48.690;9.562;2023-09-12T07:38:06;29.40;85.10
48019;DHT22;33786;48.690;9.562;2023-09-12T07:40:33;31.10;82.80
48019;DHT22;33786;48.690;9.562;2023-09-12T07:43:00;32.20;80.70
48019;DHT22;33786;48.690;9.562;2023-09-12T07:45:26;32.90;79.20
48019;DHT22;33786;48.690;9.562;2023-09-12T07:47:54;32.60;78.70
48019;DHT22;33786;48.690;9.562;2023-09-12T07:50:21;33.00;77.70
48019;DHT22;33786;48.690;9.562;2023-09-12T07:52:48;33.10;77.10
48019;DHT22;33786;48.690;9.562;2023-09-12T07:55:14;32.70;77.90
48019;DHT22;33786;48.690;9.562;2023-09-12T07:57:41;31.70;79.00
48019;DHT22;33786;48.690;9.562;2023-09-12T08:00:09;30.50;81.20
48019;DHT22;33786;48.690;9.562;2023-09-12T08:02:37;29.60;83.00
48019;DHT22;33786;48.690;9.562;2023-09-12T08:05:04;29.30;84.70
48019;DHT22;33786;48.690;9.562;2023-09-12T08:07:31;29.40;84.30
48019;DHT22;33786;48.690;9.562;2023-09-12T08:09:58;30.00;83.40
48019;DHT22;33786;48.690;9.562;2023-09-12T08:12:25;30.70;80.60
48019;DHT22;33786;48.690;9.562;2023-09-12T08:14:56;31.50;79.90
48019;DHT22;33786;48.690;9.562;2023-09-12T08:17:22;32.60;77.90
48019;DHT22;33786;48.690;9.562;2023-09-12T08:19:50;34.10;76.00
48019;DHT22;33786;48.690;9.562;2023-09-12T08:22:16;35.50;72.60
48019;DHT22;33786;48.690;9.562;2023-09-12T08:24:43;36.80;72.00
48019;DHT22;33786;48.690;9.562;2023-09-12T08:27:10;37.40;70.10
48019;DHT22;33786;48.690;9.562;2023-09-12T08:29:37;37.90;68.50
48019;DHT22;33786;48.690;9.562;2023-09-12T08:32:04;37.90;68.10
48019;DHT22;33786;48.690;9.562;2023-09-12T08:34:31;37.80;68.20
48019;DHT22;33786;48.690;9.562;2023-09-12T08:36:59;37.70;68.40
48019;DHT22;33786;48.690;9.562;2023-09-12T08:39:26;37.40;68.60
48019;DHT22;33786;48.690;9.562;2023-09-12T08:41:53;37.50;69.00
48019;DHT22;33786;48.690;9.562;2023-09-12T08:44:21;37.60;68.80
48019;DHT22;33786;48.690;9.562;2023-09-12T08:46:48;37.80;68.00
48019;DHT22;33786;48.690;9.562;2023-09-12T08:49:15;38.60;65.90
48019;DHT22;33786;48.690;9.562;2023-09-12T08:51:42;39.30;65.40
48019;DHT22;33786;48.690;9.562;2023-09-12T08:54:09;39.60;65.20
48019;DHT22;33786;48.690;9.562;2023-09-12T08:56:36;38.70;65.90
48019;DHT22;33786;48.690;9.562;2023-09-12T08:59:05;38.70;65.80
48019;DHT22;33786;48.690;9.562;2023-09-12T09:01:32;38.50;64.80
48019;DHT22;33786;48.690;9.562;2023-09-12T09:04:01;38.00;65.90
48019;DHT22;33786;48.690;9.562;2023-09-12T09:06:30;36.90;68.00
48019;DHT22;33786;48.690;9.562;2023-09-12T09:08:57;37.10;65.70
48019;DHT22;33786;48.690;9.562;2023-09-12T09:11:25;36.50;67.50
48019;DHT22;33786;48.690;9.562;2023-09-12T09:13:54;37.60;67.80
48019;DHT22;33786;48.690;9.562;2023-09-12T09:16:21;38.10;66.10
48019;DHT22;33786;48.690;9.562;2023-09-12T09:19:06;38.80;65.60
48019;DHT22;33786;48.690;9.562;2023-09-12T09:21:37;38.90;65.80
48019;DHT22;33786;48.690;9.562;2023-09-12T09:24:06;38.80;65.70
48019;DHT22;33786;48.690;9.562;2023-09-12T09:26:43;39.20;65.60
48019;DHT22;33786;48.690;9.562;2023-09-12T09:29:12;39.60;66.00
48019;DHT22;33786;48.690;9.562;2023-09-12T09:31:41;40.00;64.20
48019;DHT22;33786;48.690;9.562;2023-09-12T09:34:14;39.40;66.10
48019;DHT22;33786;48.690;9.562;2023-09-12T09:36:44;38.60;65.80
48019;DHT22;33786;48.690;9.562;2023-09-12T09:39:10;38.50;66.00
48019;DHT22;33786;48.690;9.562;2023-09-12T09:41:39;38.20;66.40
48019;DHT22;33786;48.690;9.562;2023-09-12T09:44:09;37.60;67.40
48019;DHT22;33786;48.690;9.562;2023-09-12T09:46:36;37.50;67.70
48019;DHT22;33786;48.690;9.562;2023-09-12T09:49:04;37.50;68.20
48019;DHT22;33786;48.690;9.562;2023-09-12T09:51:33;37.00;69.00
48019;DHT22;33786;48.690;9.562;2023-09-12T09:54:07;36.40;69.10
48019;DHT22;33786;48.690;9.562;2023-09-12T09:56:44;35.60;70.50
48019;DHT22;33786;48.690;9.562;2023-09-12T09:59:13;36.00;71.20
48019;DHT22;33786;48.690;9.562;2023-09-12T10:01:40;37.20;69.00
48019;DHT22;33786;48.690;9.562;2023-09-12T10:04:07;38.10;67.60
48019;DHT22;33786;48.690;9.562;2023-09-12T10:06:34;38.40;66.30
48019;DHT22;33786;48.690;9.562;2023-09-12T10:09:04;38.90;65.80
48019;DHT22;33786;48.690;9.562;2023-09-12T10:11:32;38.70;67.00
48019;DHT22;33786;48.690;9.562;2023-09-12T10:14:02;38.10;66.90
48019;DHT22;33786;48.690;9.562;2023-09-12T10:16:30;38.30;67.20
48019;DHT22;33786;48.690;9.562;2023-09-12T10:18:59;38.70;66.00
48019;DHT22;33786;48.690;9.562;2023-09-12T10:21:31;38.40;67.50
48019;DHT22;33786;48.690;9.562;2023-09-12T10:23:58;38.20;66.00
48019;DHT22;33786;48.690;9.562;2023-09-12T10:26:25;37.80;66.90
48019;DHT22;33786;48.690;9.562;2023-09-12T10:28:52;38.20;67.30
48019;DHT22;33786;48.690;9.562;2023-09-12T10:31:19;38.20;66.60
48019;DHT22;33786;48.690;9.562;2023-09-12T10:33:46;38.50;65.90
48019;DHT22;33786;48.690;9.562;2023-09-12T10:36:13;38.50;65.90
48019;DHT22;33786;48.690;9.562;2023-09-12T10:38:42;38.30;65.80
48019;DHT22;33786;48.690;9.562;2023-09-12T10:41:12;38.30;66.10
48019;DHT22;33786;48.690;9.562;2023-09-12T10:43:43;38.00;65.10
48019;DHT22;33786;48.690;9.562;2023-09-12T10:46:13;38.00;67.20
48019;DHT22;33786;48.690;9.562;2023-09-12T10:48:40;37.40;67.80
48019;DHT22;33786;48.690;9.562;2023-09-12T10:51:07;37.50;69.40
48019;DHT22;33786;48.690;9.562;2023-09-12T10:53:34;36.90;67.10
48019;DHT22;33786;48.690;9.562;2023-09-12T10:59:08;37.00;67.40
48019;DHT22;33786;48.690;9.562;2023-09-12T11:01:22;37.10;67.50
48019;DHT22;33786;48.690;9.562;2023-09-12T11:03:49;36.80;66.60
48019;DHT22;33786;48.690;9.562;2023-09-12T11:06:19;36.70;67.70
48019;DHT22;33786;48.690;9.562;2023-09-12T11:09:03;36.20;68.10
48019;DHT22;33786;48.690;9.562;2023-09-12T11:11:33;36.10;67.10
48019;DHT22;33786;48.690;9.562;2023-09-12T11:14:03;35.80;68.00
48019;DHT22;33786;48.690;9.562;2023-09-12T11:16:30;35.60;68.30
48019;DHT22;33786;48.690;9.562;2023-09-12T11:19:18;35.50;68.50
48019;DHT22;33786;48.690;9.562;2023-09-12T11:21:46;35.60;68.70
48019;DHT22;33786;48.690;9.562;2023-09-12T11:24:13;35.60;69.00
48019;DHT22;33786;48.690;9.562;2023-09-12T11:27:00;35.30;67.80
48019;DHT22;33786;48.690;9.562;2023-09-12T11:29:33;35.10;68.20
48019;DHT22;33786;48.690;9.562;2023-09-12T11:32:01;34.90;68.40
48019;DHT22;33786;48.690;9.562;2023-09-12T11:34:36;34.70;69.00
48019;DHT22;33786;48.690;9.562;2023-09-12T11:37:03;34.80;68.70
48019;DHT22;33786;48.690;9.562;2023-09-12T11:39:34;34.60;69.30
48019;DHT22;33786;48.690;9.562;2023-09-12T11:42:02;34.50;69.10
48019;DHT22;33786;48.690;9.562;2023-09-12T11:44:30;34.40;68.20
48019;DHT22;33786;48.690;9.562;2023-09-12T11:47:00;34.40;68.30
48019;DHT22;33786;48.690;9.562;2023-09-12T11:49:36;34.60;69.70
48019;DHT22;33786;48.690;9.562;2023-09-12T11:52:07;34.80;68.30
48019;DHT22;33786;48.690;9.562;2023-09-12T11:54:34;34.60;69.30
48019;DHT22;33786;48.690;9.562;2023-09-12T11:57:01;34.50;69.70
48019;DHT22;33786;48.690;9.562;2023-09-12T11:59:31;34.50;68.00
48019;DHT22;33786;48.690;9.562;2023-09-12T12:01:57;34.80;67.40
48019;DHT22;33786;48.690;9.562;2023-09-12T12:04:24;34.80;67.20
48019;DHT22;33786;48.690;9.562;2023-09-12T12:06:52;35.00;67.80
48019;DHT22;33786;48.690;9.562;2023-09-12T12:09:19;35.20;66.90
48019;DHT22;33786;48.690;9.562;2023-09-12T12:11:46;35.40;66.60
48019;DHT22;33786;48.690;9.562;2023-09-12T12:14:14;34.80;64.90
48019;DHT22;33786;48.690;9.562;2023-09-12T12:16:42;34.10;65.80
48019;DHT22;33786;48.690;9.562;2023-09-12T12:19:09;34.60;66.70
48019;DHT22;33786;48.690;9.562;2023-09-12T12:21:41;34.40;65.40
48019;DHT22;33786;48.690;9.562;2023-09-12T12:24:10;34.10;65.00
48019;DHT22;33786;48.690;9.562;2023-09-12T12:26:37;34.20;64.10
48019;DHT22;33786;48.690;9.562;2023-09-12T12:29:04;34.30;66.60
48019;DHT22;33786;48.690;9.562;2023-09-12T12:31:31;34.50;65.10
48019;DHT22;33786;48.690;9.562;2023-09-12T12:33:59;34.40;64.50
48019;DHT22;33786;48.690;9.562;2023-09-12T12:36:46;34.50;62.90
48019;DHT22;33786;48.690;9.562;2023-09-12T12:39:23;34.50;63.60
48019;DHT22;33786;48.690;9.562;2023-09-12T12:41:53;34.80;65.20
48019;DHT22;33786;48.690;9.562;2023-09-12T12:44:20;34.90;63.10
48019;DHT22;33786;48.690;9.562;2023-09-12T12:46:56;34.80;62.20
48019;DHT22;33786;48.690;9.562;2023-09-12T12:49:23;34.60;61.80
48019;DHT22;33786;48.690;9.562;2023-09-12T12:51:51;34.60;64.50
48019;DHT22;33786;48.690;9.562;2023-09-12T12:54:21;34.50;64.80
48019;DHT22;33786;48.690;9.562;2023-09-12T12:56:48;34.60;64.00
48019;DHT22;33786;48.690;9.562;2023-09-12T12:59:15;34.80;64.10
48019;DHT22;33786;48.690;9.562;2023-09-12T13:01:44;34.90;64.00
48019;DHT22;33786;48.690;9.562;2023-09-12T13:04:10;34.70;63.00
48019;DHT22;33786;48.690;9.562;2023-09-12T13:06:37;34.90;65.10
48019;DHT22;33786;48.690;9.562;2023-09-12T13:09:05;34.70;63.00
48019;DHT22;33786;48.690;9.562;2023-09-12T13:11:33;34.70;63.10
48019;DHT22;33786;48.690;9.562;2023-09-12T13:14:01;34.80;62.20
48019;DHT22;33786;48.690;9.562;2023-09-12T13:16:29;34.90;62.20
48019;DHT22;33786;48.690;9.562;2023-09-12T13:18:56;34.70;62.50
48019;DHT22;33786;48.690;9.562;2023-09-12T13:21:23;34.60;62.10
48019;DHT22;33786;48.690;9.562;2023-09-12T13:23:49;34.60;63.10
48019;DHT22;33786;48.690;9.562;2023-09-12T13:26:16;34.50;64.40
48019;DHT22;33786;48.690;9.562;2023-09-12T13:28:43;34.40;65.20
48019;DHT22;33786;48.690;9.562;2023-09-12T13:31:10;34.20;65.90
48019;DHT22;33786;48.690;9.562;2023-09-12T13:33:37;33.90;65.60
48019;DHT22;33786;48.690;9.562;2023-09-12T13:36:03;33.80;66.00
48019;DHT22;33786;48.690;9.562;2023-09-12T13:38:30;33.60;64.20
48019;DHT22;33786;48.690;9.562;2023-09-12T13:40:57;33.50;66.30
48019;DHT22;33786;48.690;9.562;2023-09-12T13:43:24;33.40;65.90
48019;DHT22;33786;48.690;9.562;2023-09-12T13:45:50;33.40;64.30
48019;DHT22;33786;48.690;9.562;2023-09-12T13:48:17;33.60;63.10
48019;DHT22;33786;48.690;9.562;2023-09-12T13:50:44;33.90;63.30
48019;DHT22;33786;48.690;9.562;2023-09-12T13:53:11;34.00;63.80
48019;DHT22;33786;48.690;9.562;2023-09-12T13:55:38;34.10;64.20
48019;DHT22;33786;48.690;9.562;2023-09-12T13:58:05;34.20;63.80
48019;DHT22;33786;48.690;9.562;2023-09-12T14:00:33;34.30;64.10
48019;DHT22;33786;48.690;9.562;2023-09-12T14:03:03;34.20;65.80
48019;DHT22;33786;48.690;9.562;2023-09-12T14:05:31;34.30;64.70
48019;DHT22;33786;48.690;9.562;2023-09-12T14:07:58;34.50;65.20
48019;DHT22;33786;48.690;9.562;2023-09-12T14:10:25;34.60;65.80
48019;DHT22;33786;48.690;9.562;2023-09-12T14:13:02;34.50;61.90
48019;DHT22;33786;48.690;9.562;2023-09-12T14:15:46;34.30;61.90
48019;DHT22;33786;48.690;9.562;2023-09-12T14:18:13;34.00;63.20
48019;DHT22;33786;48.690;9.562;2023-09-12T14:20:40;33.70;64.00
48019;DHT22;33786;48.690;9.562;2023-09-12T14:23:08;33.70;63.50
48019;DHT22;33786;48.690;9.562;2023-09-12T14:25:35;33.50;64.80
48019;DHT22;33786;48.690;9.562;2023-09-12T14:28:02;33.40;67.90
48019;DHT22;33786;48.690;9.562;2023-09-12T14:30:31;33.20;67.60
48019;DHT22;33786;48.690;9.562;2023-09-12T14:33:02;33.10;67.50
48019;DHT22;33786;48.690;9.562;2023-09-12T14:35:29;32.80;69.30
48019;DHT22;33786;48.690;9.562;2023-09-12T14:37:56;32.50;69.30
48019;DHT22;33786;48.690;9.562;2023-09-12T14:40:25;32.40;72.10
48019;DHT22;33786;48.690;9.562;2023-09-12T14:42:53;32.10;73.50
48019;DHT22;33786;48.690;9.562;2023-09-12T14:45:20;31.90;75.10
48019;DHT22;33786;48.690;9.562;2023-09-12T14:47:47;31.70;76.30
48019;DHT22;33786;48.690;9.562;2023-09-12T14:50:14;31.40;77.80
48019;DHT22;33786;48.690;9.562;2023-09-12T14:52:42;31.30;77.40
48019;DHT22;33786;48.690;9.562;2023-09-12T14:55:09;31.10;78.90
48019;DHT22;33786;48.690;9.562;2023-09-12T14:57:36;30.80;79.20
48019;DHT22;33786;48.690;9.562;2023-09-12T15:00:04;30.60;78.00
48019;DHT22;33786;48.690;9.562;2023-09-12T15:02:31;30.50;77.50
48019;DHT22;33786;48.690;9.562;2023-09-12T15:04:59;30.30;78.80
48019;DHT22;33786;48.690;9.562;2023-09-12T15:07:27;30.10;80.20
48019;DHT22;33786;48.690;9.562;2023-09-12T15:09:54;29.90;81.20
48019;DHT22;33786;48.690;9.562;2023-09-12T15:12:20;29.70;79.20
48019;DHT22;33786;48.690;9.562;2023-09-12T15:14:47;29.60;78.60
48019;DHT22;33786;48.690;9.562;2023-09-12T15:17:16;29.50;77.90
48019;DHT22;33786;48.690;9.562;2023-09-12T15:19:42;29.30;79.10
48019;DHT22;33786;48.690;9.562;2023-09-12T15:22:09;29.20;79.50
48019;DHT22;33786;48.690;9.562;2023-09-12T15:24:36;29.20;80.20
48019;DHT22;33786;48.690;9.562;2023-09-12T15:27:03;29.10;81.70
48019;DHT22;33786;48.690;9.562;2023-09-12T15:29:30;29.00;82.20
48019;DHT22;33786;48.690;9.562;2023-09-12T15:31:56;28.80;83.50
48019;DHT22;33786;48.690;9.562;2023-09-12T15:34:24;28.70;84.40
48019;DHT22;33786;48.690;9.562;2023-09-12T15:37:05;28.60;86.70
48019;DHT22;33786;48.690;9.562;2023-09-12T15:39:48;28.40;87.40
48019;DHT22;33786;48.690;9.562;2023-09-12T15:42:15;28.30;88.10
48019;DHT22;33786;48.690;9.562;2023-09-12T15:44:58;28.30;86.80